sensor_id;sensor_type;location;lat;lon;timestamp;temperature;humidity
75321;DHT22;68337;52.196;5.660;2023-04-24T00:00:11;10.00;99.90
75321;DHT22;68337;52.196;5.660;2023-04-24T00:02:41;9.90;99.90
75321;DHT22;68337;52.196;5.660;2023-04-24T00:05:07;9.80;99.90
75321;DHT22;68337;52.196;5.660;2023-04-24T00:07:33;9.80;99.90
75321;DHT22;68337;52.196;5.660;2023-04-24T00:09:59;9.80;99.90
75321;DHT22;68337;52.196;5.660;2023-04-24T00:12:26;9.70;99.90
75321;DHT22;68337;52.196;5.660;2023-04-24T00:14:52;9.70;99.90
75321;DHT22;68337;52.196;5.660;2023-04-24T00:17:18;9.70;99.90
75321;DHT22;68337;52.196;5.660;2023-04-24T00:19:49;9.70;99.90
75321;DHT22;68337;52.196;5.660;2023-04-24T00:22:17;9.70;99.90
75321;DHT22;68337;52.196;5.660;2023-04-24T00:24:42;9.70;99.90
75321;DHT22;68337;52.196;5.660;2023-04-24T00:27:08;9.70;99.90
75321;DHT22;68337;52.196;5.660;2023-04-24T00:29:34;9.70;99.90
75321;DHT22;68337;52.196;5.660;2023-04-24T00:32:00;9.70;99.90
75321;DHT22;68337;52.196;5.660;2023-04-24T00:34:26;9.70;99.90
75321;DHT22;68337;52.196;5.660;2023-04-24T00:36:51;9.70;99.90
75321;DHT22;68337;52.196;5.660;2023-04-24T00:39:21;9.70;99.90
75321;DHT22;68337;52.196;5.660;2023-04-24T00:41:47;9.70;99.90
75321;DHT22;68337;52.196;5.660;2023-04-24T00:44:14;9.70;99.90
75321;DHT22;68337;52.196;5.660;2023-04-24T00:46:40;9.70;99.90
75321;DHT22;68337;52.196;5.660;2023-04-24T00:49:06;9.70;99.90
75321;DHT22;68337;52.196;5.660;2023-04-24T00:51:32;9.60;99.90
75321;DHT22;68337;52.196;5.660;2023-04-24T00:53:58;9.60;99.90
75321;DHT22;68337;52.196;5.660;2023-04-24T00:56:24;9.60;99.90
75321;DHT22;68337;52.196;5.660;2023-04-24T00:58:50;9.60;99.90
75321;DHT22;68337;52.196;5.660;2023-04-24T01:01:17;9.60;99.90
75321;DHT22;68337;52.196;5.660;2023-04-24T01:03:46;9.50;99.90
75321;DHT22;68337;52.196;5.660;2023-04-24T01:06:13;9.50;99.90
75321;DHT22;68337;52.196;5.660;2023-04-24T01:08:40;9.50;99.90
75321;DHT22;68337;52.196;5.660;2023-04-24T01:11:06;9.50;99.90
75321;DHT22;68337;52.196;5.660;2023-04-24T01:13:33;9.50;99.90
75321;DHT22;68337;52.196;5.660;2023-04-24T01:15:59;9.50;99.90
75321;DHT22;68337;52.196;5.660;2023-04-24T01:18:25;9.50;99.90
75321;DHT22;68337;52.196;5.660;2023-04-24T01:20:54;9.40;99.90
75321;DHT22;68337;52.196;5.660;2023-04-24T01:23:22;9.50;99.90
75321;DHT22;68337;52.196;5.660;2023-04-24T01:25:49;9.40;99.90
75321;DHT22;68337;52.196;5.660;2023-04-24T01:28:15;9.50;99.90
75321;DHT22;68337;52.196;5.660;2023-04-24T01:30:41;9.40;99.90
75321;DHT22;68337;52.196;5.660;2023-04-24T01:33:07;9.40;99.90
75321;DHT22;68337;52.196;5.660;2023-04-24T01:35:33;9.40;99.90
75321;DHT22;68337;52.196;5.660;2023-04-24T01:37:59;9.40;99.90
75321;DHT22;68337;52.196;5.660;2023-04-24T01:40:25;9.40;99.90
75321;DHT22;68337;52.196;5.660;2023-04-24T01:42:51;9.40;99.90
75321;DHT22;68337;52.196;5.660;2023-04-24T01:45:17;9.40;99.90
75321;DHT22;68337;52.196;5.660;2023-04-24T01:47:44;9.40;99.90
75321;DHT22;68337;52.196;5.660;2023-04-24T01:50:10;9.40;99.90
75321;DHT22;68337;52.196;5.660;2023-04-24T01:52:36;9.40;99.90
75321;DHT22;68337;52.196;5.660;2023-04-24T01:55:03;9.50;99.90
75321;DHT22;68337;52.196;5.660;2023-04-24T01:57:30;9.60;99.90
75321;DHT22;68337;52.196;5.660;2023-04-24T01:59:56;9.60;99.90
75321;DHT22;68337;52.196;5.660;2023-04-24T02:02:22;9.60;99.90
75321;DHT22;68337;52.196;5.660;2023-04-24T02:04:50;9.50;99.90
75321;DHT22;68337;52.196;5.660;2023-04-24T02:07:16;9.50;99.90
75321;DHT22;68337;52.196;5.660;2023-04-24T02:09:41;9.50;99.90
75321;DHT22;68337;52.196;5.660;2023-04-24T02:12:07;9.50;99.90
75321;DHT22;68337;52.196;5.660;2023-04-24T02:14:33;9.40;99.90
75321;DHT22;68337;52.196;5.660;2023-04-24T02:16:59;9.40;99.90
75321;DHT22;68337;52.196;5.660;2023-04-24T02:19:26;9.50;99.90
75321;DHT22;68337;52.196;5.660;2023-04-24T02:21:52;9.50;99.90
75321;DHT22;68337;52.196;5.660;2023-04-24T02:24:17;9.50;99.90
75321;DHT22;68337;52.196;5.660;2023-04-24T02:26:43;9.50;99.90
75321;DHT22;68337;52.196;5.660;2023-04-24T02:29:09;9.60;99.90
75321;DHT22;68337;52.196;5.660;2023-04-24T02:31:34;9.60;99.90
75321;DHT22;68337;52.196;5.660;2023-04-24T02:34:00;9.50;99.90
75321;DHT22;68337;52.196;5.660;2023-04-24T02:36:26;9.50;99.90
75321;DHT22;68337;52.196;5.660;2023-04-24T02:38:51;9.60;99.90
75321;DHT22;68337;52.196;5.660;2023-04-24T02:41:17;9.60;99.90
75321;DHT22;68337;52.196;5.660;2023-04-24T02:43:43;9.60;99.90
75321;DHT22;68337;52.196;5.660;2023-04-24T02:46:08;9.60;99.90
75321;DHT22;68337;52.196;5.660;2023-04-24T02:48:34;9.60;99.90
75321;DHT22;68337;52.196;5.660;2023-04-24T02:51:00;9.50;99.90
75321;DHT22;68337;52.196;5.660;2023-04-24T02:53:26;9.60;99.90
75321;DHT22;68337;52.196;5.660;2023-04-24T02:55:51;9.50;99.90
75321;DHT22;68337;52.196;5.660;2023-04-24T02:58:17;9.50;99.90
75321;DHT22;68337;52.196;5.660;2023-04-24T03:00:45;9.50;99.90
75321;DHT22;68337;52.196;5.660;2023-04-24T03:03:11;9.50;99.90
75321;DHT22;68337;52.196;5.660;2023-04-24T03:05:37;9.50;99.90
75321;DHT22;68337;52.196;5.660;2023-04-24T03:08:03;9.40;99.90
75321;DHT22;68337;52.196;5.660;2023-04-24T03:10:28;9.50;99.90
75321;DHT22;68337;52.196;5.660;2023-04-24T03:12:54;9.50;99.90
75321;DHT22;68337;52.196;5.660;2023-04-24T03:15:20;9.50;99.90
75321;DHT22;68337;52.196;5.660;2023-04-24T03:17:46;9.50;99.90
75321;DHT22;68337;52.196;5.660;2023-04-24T03:20:12;9.50;99.90
75321;DHT22;68337;52.196;5.660;2023-04-24T03:22:38;9.50;99.90
75321;DHT22;68337;52.196;5.660;2023-04-24T03:25:04;9.50;99.90
75321;DHT22;68337;52.196;5.660;2023-04-24T03:27:30;9.50;99.90
75321;DHT22;68337;52.196;5.660;2023-04-24T03:29:56;9.50;99.90
75321;DHT22;68337;52.196;5.660;2023-04-24T03:32:22;9.60;99.90
75321;DHT22;68337;52.196;5.660;2023-04-24T03:34:51;9.60;99.90
75321;DHT22;68337;52.196;5.660;2023-04-24T03:37:17;9.60;99.90
75321;DHT22;68337;52.196;5.660;2023-04-24T03:39:43;9.60;99.90
75321;DHT22;68337;52.196;5.660;2023-04-24T03:42:09;9.60;99.90
75321;DHT22;68337;52.196;5.660;2023-04-24T03:44:35;9.60;99.90
75321;DHT22;68337;52.196;5.660;2023-04-24T03:47:01;9.60;99.90
75321;DHT22;68337;52.196;5.660;2023-04-24T03:49:27;9.60;99.90
75321;DHT22;68337;52.196;5.660;2023-04-24T03:51:53;9.60;99.90
75321;DHT22;68337;52.196;5.660;2023-04-24T03:54:19;9.60;99.90
75321;DHT22;68337;52.196;5.660;2023-04-24T03:56:45;9.50;99.90
75321;DHT22;68337;52.196;5.660;2023-04-24T03:59:11;9.50;99.90
75321;DHT22;68337;52.196;5.660;2023-04-24T04:01:37;9.50;99.90
75321;DHT22;68337;52.196;5.660;2023-04-24T04:04:03;9.50;99.90
75321;DHT22;68337;52.196;5.660;2023-04-24T04:06:29;9.50;99.90
75321;DHT22;68337;52.196;5.660;2023-04-24T04:08:56;9.50;99.90
75321;DHT22;68337;52.196;5.660;2023-04-24T04:11:23;9.50;99.90
75321;DHT22;68337;52.196;5.660;2023-04-24T04:13:48;9.50;99.90
75321;DHT22;68337;52.196;5.660;2023-04-24T04:16:14;9.50;99.90
75321;DHT22;68337;52.196;5.660;2023-04-24T04:18:42;9.40;99.90
75321;DHT22;68337;52.196;5.660;2023-04-24T04:21:08;9.40;99.90
75321;DHT22;68337;52.196;5.660;2023-04-24T04:23:34;9.40;99.90
75321;DHT22;68337;52.196;5.660;2023-04-24T04:25:59;9.40;99.90
75321;DHT22;68337;52.196;5.660;2023-04-24T04:28:25;9.40;99.90
75321;DHT22;68337;52.196;5.660;2023-04-24T04:30:51;9.40;99.90
75321;DHT22;68337;52.196;5.660;2023-04-24T04:33:21;9.50;99.90
75321;DHT22;68337;52.196;5.660;2023-04-24T04:35:47;9.40;99.90
75321;DHT22;68337;52.196;5.660;2023-04-24T04:38:14;9.40;99.90
75321;DHT22;68337;52.196;5.660;2023-04-24T04:40:41;9.40;99.90
75321;DHT22;68337;52.196;5.660;2023-04-24T04:43:07;9.40;99.90
75321;DHT22;68337;52.196;5.660;2023-04-24T04:45:33;9.40;99.90
75321;DHT22;68337;52.196;5.660;2023-04-24T04:48:00;9.40;99.90
75321;DHT22;68337;52.196;5.660;2023-04-24T04:50:27;9.40;99.90
75321;DHT22;68337;52.196;5.660;2023-04-24T04:52:53;9.40;99.90
75321;DHT22;68337;52.196;5.660;2023-04-24T04:55:19;9.40;99.90
75321;DHT22;68337;52.196;5.660;2023-04-24T04:57:47;9.40;99.90
75321;DHT22;68337;52.196;5.660;2023-04-24T05:00:13;9.40;99.90
75321;DHT22;68337;52.196;5.660;2023-04-24T05:02:39;9.40;99.90
75321;DHT22;68337;52.196;5.660;2023-04-24T05:05:06;9.50;99.90
75321;DHT22;68337;52.196;5.660;2023-04-24T05:07:32;9.50;99.90
75321;DHT22;68337;52.196;5.660;2023-04-24T05:09:57;9.50;99.90
75321;DHT22;68337;52.196;5.660;2023-04-24T05:12:23;9.50;99.90
75321;DHT22;68337;52.196;5.660;2023-04-24T05:14:49;9.50;99.90
75321;DHT22;68337;52.196;5.660;2023-04-24T05:17:15;9.50;99.90
75321;DHT22;68337;52.196;5.660;2023-04-24T05:19:42;9.40;99.90
75321;DHT22;68337;52.196;5.660;2023-04-24T05:22:08;9.50;99.90
75321;DHT22;68337;52.196;5.660;2023-04-24T05:24:35;9.50;99.90
75321;DHT22;68337;52.196;5.660;2023-04-24T05:27:04;9.50;99.90
75321;DHT22;68337;52.196;5.660;2023-04-24T05:29:30;9.60;99.90
75321;DHT22;68337;52.196;5.660;2023-04-24T05:31:57;9.60;99.90
75321;DHT22;68337;52.196;5.660;2023-04-24T05:34:23;9.60;99.90
75321;DHT22;68337;52.196;5.660;2023-04-24T05:36:49;9.50;99.90
75321;DHT22;68337;52.196;5.660;2023-04-24T05:39:16;9.60;99.90
75321;DHT22;68337;52.196;5.660;2023-04-24T05:41:42;9.60;99.90
75321;DHT22;68337;52.196;5.660;2023-04-24T05:44:08;9.60;99.90
75321;DHT22;68337;52.196;5.660;2023-04-24T05:46:34;9.70;99.90
75321;DHT22;68337;52.196;5.660;2023-04-24T05:48:59;9.70;99.90
75321;DHT22;68337;52.196;5.660;2023-04-24T05:51:25;9.70;99.90
75321;DHT22;68337;52.196;5.660;2023-04-24T05:53:51;9.80;99.90
75321;DHT22;68337;52.196;5.660;2023-04-24T05:56:17;9.80;99.90
75321;DHT22;68337;52.196;5.660;2023-04-24T05:58:43;9.80;99.90
75321;DHT22;68337;52.196;5.660;2023-04-24T06:01:09;9.80;99.90
75321;DHT22;68337;52.196;5.660;2023-04-24T06:03:35;9.80;99.90
75321;DHT22;68337;52.196;5.660;2023-04-24T06:06:00;9.90;99.90
75321;DHT22;68337;52.196;5.660;2023-04-24T06:08:26;9.90;99.90
75321;DHT22;68337;52.196;5.660;2023-04-24T06:10:52;9.90;99.90
75321;DHT22;68337;52.196;5.660;2023-04-24T06:13:17;9.90;99.90
75321;DHT22;68337;52.196;5.660;2023-04-24T06:15:43;9.90;99.90
75321;DHT22;68337;52.196;5.660;2023-04-24T06:18:09;10.00;99.90
75321;DHT22;68337;52.196;5.660;2023-04-24T06:20:38;9.90;99.90
75321;DHT22;68337;52.196;5.660;2023-04-24T06:23:04;9.90;99.90
75321;DHT22;68337;52.196;5.660;2023-04-24T06:25:30;9.80;99.90
75321;DHT22;68337;52.196;5.660;2023-04-24T06:27:56;9.70;99.90
75321;DHT22;68337;52.196;5.660;2023-04-24T06:30:22;9.70;99.90
75321;DHT22;68337;52.196;5.660;2023-04-24T06:32:47;9.60;99.90
75321;DHT22;68337;52.196;5.660;2023-04-24T06:35:13;9.50;99.90
75321;DHT22;68337;52.196;5.660;2023-04-24T06:37:43;9.60;99.90
75321;DHT22;68337;52.196;5.660;2023-04-24T06:40:09;9.60;99.90
75321;DHT22;68337;52.196;5.660;2023-04-24T06:42:36;9.60;99.90
75321;DHT22;68337;52.196;5.660;2023-04-24T06:45:03;9.50;99.90
75321;DHT22;68337;52.196;5.660;2023-04-24T06:47:29;9.50;99.90
75321;DHT22;68337;52.196;5.660;2023-04-24T06:49:55;9.50;99.90
75321;DHT22;68337;52.196;5.660;2023-04-24T06:52:21;9.40;99.90
75321;DHT22;68337;52.196;5.660;2023-04-24T06:54:46;9.40;99.90
75321;DHT22;68337;52.196;5.660;2023-04-24T06:57:12;9.40;99.90
75321;DHT22;68337;52.196;5.660;2023-04-24T06:59:38;9.30;99.90
75321;DHT22;68337;52.196;5.660;2023-04-24T07:02:04;9.30;99.90
75321;DHT22;68337;52.196;5.660;2023-04-24T07:04:30;9.30;99.90
75321;DHT22;68337;52.196;5.660;2023-04-24T07:06:56;9.20;99.90
75321;DHT22;68337;52.196;5.660;2023-04-24T07:09:24;9.20;99.90
75321;DHT22;68337;52.196;5.660;2023-04-24T07:11:51;9.20;99.90
75321;DHT22;68337;52.196;5.660;2023-04-24T07:14:17;9.00;99.90
75321;DHT22;68337;52.196;5.660;2023-04-24T07:16:43;9.10;99.90
75321;DHT22;68337;52.196;5.660;2023-04-24T07:19:11;9.00;99.90
75321;DHT22;68337;52.196;5.660;2023-04-24T07:21:36;9.00;99.90
75321;DHT22;68337;52.196;5.660;2023-04-24T07:24:02;9.00;99.90
75321;DHT22;68337;52.196;5.660;2023-04-24T07:26:29;9.00;99.90
75321;DHT22;68337;52.196;5.660;2023-04-24T07:28:55;9.00;99.90
75321;DHT22;68337;52.196;5.660;2023-04-24T07:31:21;8.90;99.90
75321;DHT22;68337;52.196;5.660;2023-04-24T07:33:48;8.90;99.90
75321;DHT22;68337;52.196;5.660;2023-04-24T07:36:13;8.80;99.90
75321;DHT22;68337;52.196;5.660;2023-04-24T07:38:44;8.80;99.90
75321;DHT22;68337;52.196;5.660;2023-04-24T07:41:10;8.80;99.90
75321;DHT22;68337;52.196;5.660;2023-04-24T07:43:36;8.80;99.90
75321;DHT22;68337;52.196;5.660;2023-04-24T07:48:57;8.80;99.90
75321;DHT22;68337;52.196;5.660;2023-04-24T07:57:05;8.60;99.90
75321;DHT22;68337;52.196;5.660;2023-04-24T07:59:32;8.60;99.90
75321;DHT22;68337;52.196;5.660;2023-04-24T08:01:58;8.50;99.90
75321;DHT22;68337;52.196;5.660;2023-04-24T08:04:23;8.50;99.90
75321;DHT22;68337;52.196;5.660;2023-04-24T08:06:49;8.60;99.90
75321;DHT22;68337;52.196;5.660;2023-04-24T08:09:15;8.60;99.90
75321;DHT22;68337;52.196;5.660;2023-04-24T08:11:41;8.60;99.90
75321;DHT22;68337;52.196;5.660;2023-04-24T08:14:16;8.70;99.90
75321;DHT22;68337;52.196;5.660;2023-04-24T08:16:47;8.80;99.90
75321;DHT22;68337;52.196;5.660;2023-04-24T08:19:17;8.80;99.90
75321;DHT22;68337;52.196;5.660;2023-04-24T08:21:58;8.80;99.90
75321;DHT22;68337;52.196;5.660;2023-04-24T08:24:42;8.80;99.90
75321;DHT22;68337;52.196;5.660;2023-04-24T08:27:31;8.70;99.90
75321;DHT22;68337;52.196;5.660;2023-04-24T08:29:57;8.80;99.90
75321;DHT22;68337;52.196;5.660;2023-04-24T08:32:37;8.80;99.90
75321;DHT22;68337;52.196;5.660;2023-04-24T08:35:15;8.90;99.90
75321;DHT22;68337;52.196;5.660;2023-04-24T08:37:44;8.90;99.90
75321;DHT22;68337;52.196;5.660;2023-04-24T08:40:44;8.90;99.90
75321;DHT22;68337;52.196;5.660;2023-04-24T08:43:20;8.80;99.90
75321;DHT22;68337;52.196;5.660;2023-04-24T08:45:52;8.80;99.90
75321;DHT22;68337;52.196;5.660;2023-04-24T08:48:22;8.80;99.90
75321;DHT22;68337;52.196;5.660;2023-04-24T08:50:51;8.70;99.90
75321;DHT22;68337;52.196;5.660;2023-04-24T08:53:22;8.60;99.90
75321;DHT22;68337;52.196;5.660;2023-04-24T08:55:50;8.50;99.90
75321;DHT22;68337;52.196;5.660;2023-04-24T08:58:27;8.60;99.90
75321;DHT22;68337;52.196;5.660;2023-04-24T09:00:56;8.50;99.90
75321;DHT22;68337;52.196;5.660;2023-04-24T09:03:24;8.60;99.90
75321;DHT22;68337;52.196;5.660;2023-04-24T09:05:52;8.60;99.90
75321;DHT22;68337;52.196;5.660;2023-04-24T09:08:20;8.50;99.90
75321;DHT22;68337;52.196;5.660;2023-04-24T09:10:48;8.50;99.90
75321;DHT22;68337;52.196;5.660;2023-04-24T09:13:18;8.60;99.90
75321;DHT22;68337;52.196;5.660;2023-04-24T09:15:44;8.40;99.90
75321;DHT22;68337;52.196;5.660;2023-04-24T09:18:10;8.40;99.90
75321;DHT22;68337;52.196;5.660;2023-04-24T09:23:27;8.50;99.90
75321;DHT22;68337;52.196;5.660;2023-04-24T09:25:57;8.40;99.90
75321;DHT22;68337;52.196;5.660;2023-04-24T09:28:41;8.50;99.90
75321;DHT22;68337;52.196;5.660;2023-04-24T09:31:14;8.60;99.90
75321;DHT22;68337;52.196;5.660;2023-04-24T09:34:03;8.70;99.90
75321;DHT22;68337;52.196;5.660;2023-04-24T09:36:37;8.80;99.90
75321;DHT22;68337;52.196;5.660;2023-04-24T09:39:05;8.80;99.90
75321;DHT22;68337;52.196;5.660;2023-04-24T09:41:32;8.90;99.90
75321;DHT22;68337;52.196;5.660;2023-04-24T09:44:11;9.00;99.90
75321;DHT22;68337;52.196;5.660;2023-04-24T09:46:38;9.10;99.90
75321;DHT22;68337;52.196;5.660;2023-04-24T09:49:14;9.10;99.90
75321;DHT22;68337;52.196;5.660;2023-04-24T09:51:43;9.30;99.90
75321;DHT22;68337;52.196;5.660;2023-04-24T09:54:19;9.20;99.90
75321;DHT22;68337;52.196;5.660;2023-04-24T09:56:50;9.10;99.90
75321;DHT22;68337;52.196;5.660;2023-04-24T09:59:18;9.00;99.90
75321;DHT22;68337;52.196;5.660;2023-04-24T10:01:44;8.80;99.90
75321;DHT22;68337;52.196;5.660;2023-04-24T10:04:21;8.60;99.90
75321;DHT22;68337;52.196;5.660;2023-04-24T10:06:48;8.50;99.90
75321;DHT22;68337;52.196;5.660;2023-04-24T10:09:15;8.40;99.90
75321;DHT22;68337;52.196;5.660;2023-04-24T10:11:47;8.40;99.90
75321;DHT22;68337;52.196;5.660;2023-04-24T10:14:14;8.50;99.90
75321;DHT22;68337;52.196;5.660;2023-04-24T10:16:41;8.50;99.90
75321;DHT22;68337;52.196;5.660;2023-04-24T10:19:07;8.60;99.90
75321;DHT22;68337;52.196;5.660;2023-04-24T10:21:35;8.70;99.90
75321;DHT22;68337;52.196;5.660;2023-04-24T10:24:03;8.80;99.90
75321;DHT22;68337;52.196;5.660;2023-04-24T10:26:30;9.00;99.90
75321;DHT22;68337;52.196;5.660;2023-04-24T10:28:57;9.00;99.90
75321;DHT22;68337;52.196;5.660;2023-04-24T10:31:24;9.20;99.90
75321;DHT22;68337;52.196;5.660;2023-04-24T10:33:51;9.40;99.90
75321;DHT22;68337;52.196;5.660;2023-04-24T10:36:22;9.50;99.90
75321;DHT22;68337;52.196;5.660;2023-04-24T10:38:49;9.60;99.90
75321;DHT22;68337;52.196;5.660;2023-04-24T10:41:18;9.80;99.90
75321;DHT22;68337;52.196;5.660;2023-04-24T10:43:48;9.90;99.90
75321;DHT22;68337;52.196;5.660;2023-04-24T10:46:30;10.10;99.90
75321;DHT22;68337;52.196;5.660;2023-04-24T10:48:55;10.10;99.90
75321;DHT22;68337;52.196;5.660;2023-04-24T10:51:23;10.10;99.90
75321;DHT22;68337;52.196;5.660;2023-04-24T10:53:50;10.20;99.90
75321;DHT22;68337;52.196;5.660;2023-04-24T10:56:17;10.20;99.90
75321;DHT22;68337;52.196;5.660;2023-04-24T10:58:50;10.30;99.90
75321;DHT22;68337;52.196;5.660;2023-04-24T11:01:31;10.40;99.90
75321;DHT22;68337;52.196;5.660;2023-04-24T11:04:02;10.50;99.90
75321;DHT22;68337;52.196;5.660;2023-04-24T11:06:30;10.40;99.90
75321;DHT22;68337;52.196;5.660;2023-04-24T11:09:06;10.30;99.90
75321;DHT22;68337;52.196;5.660;2023-04-24T11:11:33;10.20;99.90
75321;DHT22;68337;52.196;5.660;2023-04-24T11:16:31;10.10;99.90
75321;DHT22;68337;52.196;5.660;2023-04-24T11:21:48;9.80;99.90
75321;DHT22;68337;52.196;5.660;2023-04-24T11:26:57;9.50;99.90
75321;DHT22;68337;52.196;5.660;2023-04-24T11:29:25;9.40;99.90
75321;DHT22;68337;52.196;5.660;2023-04-24T11:32:18;9.40;99.90
75321;DHT22;68337;52.196;5.660;2023-04-24T11:34:56;9.50;99.90
75321;DHT22;68337;52.196;5.660;2023-04-24T11:37:23;9.70;99.90
75321;DHT22;68337;52.196;5.660;2023-04-24T11:39:57;9.90;99.90
75321;DHT22;68337;52.196;5.660;2023-04-24T11:42:23;10.00;99.90
75321;DHT22;68337;52.196;5.660;2023-04-24T11:44:51;10.40;99.90
75321;DHT22;68337;52.196;5.660;2023-04-24T11:47:17;10.90;99.90
75321;DHT22;68337;52.196;5.660;2023-04-24T11:49:42;11.50;99.90
75321;DHT22;68337;52.196;5.660;2023-04-24T11:52:08;11.60;99.90
75321;DHT22;68337;52.196;5.660;2023-04-24T11:54:34;11.80;99.90
75321;DHT22;68337;52.196;5.660;2023-04-24T11:57:04;12.00;99.90
75321;DHT22;68337;52.196;5.660;2023-04-24T11:59:35;11.90;99.90
75321;DHT22;68337;52.196;5.660;2023-04-24T12:02:02;11.40;99.90
75321;DHT22;68337;52.196;5.660;2023-04-24T12:04:41;11.10;99.90
75321;DHT22;68337;52.196;5.660;2023-04-24T12:07:06;10.90;99.90
75321;DHT22;68337;52.196;5.660;2023-04-24T12:09:44;10.70;99.90
75321;DHT22;68337;52.196;5.660;2023-04-24T12:12:16;10.80;99.90
75321;DHT22;68337;52.196;5.660;2023-04-24T12:14:48;10.80;99.90
75321;DHT22;68337;52.196;5.660;2023-04-24T12:17:15;10.80;99.90
75321;DHT22;68337;52.196;5.660;2023-04-24T12:19:45;10.60;99.90
75321;DHT22;68337;52.196;5.660;2023-04-24T12:22:11;10.40;99.90
75321;DHT22;68337;52.196;5.660;2023-04-24T12:24:56;10.40;99.90
75321;DHT22;68337;52.196;5.660;2023-04-24T12:27:22;10.30;99.90
75321;DHT22;68337;52.196;5.660;2023-04-24T12:29:58;10.40;99.90
75321;DHT22;68337;52.196;5.660;2023-04-24T12:32:24;10.30;99.90
75321;DHT22;68337;52.196;5.660;2023-04-24T12:34:54;10.50;99.90
75321;DHT22;68337;52.196;5.660;2023-04-24T12:37:20;10.90;99.90
75321;DHT22;68337;52.196;5.660;2023-04-24T12:42:26;11.10;99.90
75321;DHT22;68337;52.196;5.660;2023-04-24T12:44:56;11.20;99.90
75321;DHT22;68337;52.196;5.660;2023-04-24T12:47:24;11.10;99.90
75321;DHT22;68337;52.196;5.660;2023-04-24T12:49:49;10.80;99.90
75321;DHT22;68337;52.196;5.660;2023-04-24T12:52:18;10.80;99.90
75321;DHT22;68337;52.196;5.660;2023-04-24T12:54:45;10.80;99.90
75321;DHT22;68337;52.196;5.660;2023-04-24T12:57:11;10.80;99.90
75321;DHT22;68337;52.196;5.660;2023-04-24T12:59:37;10.70;99.90
75321;DHT22;68337;52.196;5.660;2023-04-24T13:02:04;10.80;99.90
75321;DHT22;68337;52.196;5.660;2023-04-24T13:04:30;10.80;99.90
75321;DHT22;68337;52.196;5.660;2023-04-24T13:06:56;10.70;99.90
75321;DHT22;68337;52.196;5.660;2023-04-24T13:09:21;10.30;99.90
75321;DHT22;68337;52.196;5.660;2023-04-24T13:11:47;9.90;99.90
75321;DHT22;68337;52.196;5.660;2023-04-24T13:14:13;9.90;99.90
75321;DHT22;68337;52.196;5.660;2023-04-24T13:16:38;9.70;99.90
75321;DHT22;68337;52.196;5.660;2023-04-24T13:19:04;9.60;99.90
75321;DHT22;68337;52.196;5.660;2023-04-24T13:21:30;9.50;99.90
75321;DHT22;68337;52.196;5.660;2023-04-24T13:23:56;9.30;99.90
75321;DHT22;68337;52.196;5.660;2023-04-24T13:26:21;9.40;99.90
75321;DHT22;68337;52.196;5.660;2023-04-24T13:28:47;9.40;99.90
75321;DHT22;68337;52.196;5.660;2023-04-24T13:31:13;9.40;99.90
75321;DHT22;68337;52.196;5.660;2023-04-24T13:33:39;9.60;99.90
75321;DHT22;68337;52.196;5.660;2023-04-24T13:36:05;9.70;99.90
75321;DHT22;68337;52.196;5.660;2023-04-24T13:38:31;10.00;99.90
75321;DHT22;68337;52.196;5.660;2023-04-24T13:40:57;10.10;99.90
75321;DHT22;68337;52.196;5.660;2023-04-24T13:43:23;10.30;99.90
75321;DHT22;68337;52.196;5.660;2023-04-24T13:45:48;10.40;99.90
75321;DHT22;68337;52.196;5.660;2023-04-24T13:48:14;10.30;99.90
75321;DHT22;68337;52.196;5.660;2023-04-24T13:50:41;10.30;99.90
75321;DHT22;68337;52.196;5.660;2023-04-24T13:53:08;10.10;99.90
75321;DHT22;68337;52.196;5.660;2023-04-24T13:55:33;10.00;99.90
75321;DHT22;68337;52.196;5.660;2023-04-24T13:57:59;9.90;99.90
75321;DHT22;68337;52.196;5.660;2023-04-24T14:00:27;9.90;99.90
75321;DHT22;68337;52.196;5.660;2023-04-24T14:02:52;9.90;99.90
75321;DHT22;68337;52.196;5.660;2023-04-24T14:05:18;9.80;99.90
75321;DHT22;68337;52.196;5.660;2023-04-24T14:07:44;9.90;99.90
75321;DHT22;68337;52.196;5.660;2023-04-24T14:10:10;10.00;99.90
75321;DHT22;68337;52.196;5.660;2023-04-24T14:12:35;10.20;99.90
75321;DHT22;68337;52.196;5.660;2023-04-24T14:15:01;10.50;99.90
75321;DHT22;68337;52.196;5.660;2023-04-24T14:17:27;11.00;99.90
75321;DHT22;68337;52.196;5.660;2023-04-24T14:19:53;11.80;99.90
75321;DHT22;68337;52.196;5.660;2023-04-24T14:22:21;11.80;99.90
75321;DHT22;68337;52.196;5.660;2023-04-24T14:24:47;11.20;99.90
75321;DHT22;68337;52.196;5.660;2023-04-24T14:27:13;10.80;99.90
75321;DHT22;68337;52.196;5.660;2023-04-24T14:29:38;10.50;99.90
75321;DHT22;68337;52.196;5.660;2023-04-24T14:32:04;10.10;99.90
75321;DHT22;68337;52.196;5.660;2023-04-24T14:34:30;10.10;99.90
75321;DHT22;68337;52.196;5.660;2023-04-24T14:36:56;10.10;99.90
75321;DHT22;68337;52.196;5.660;2023-04-24T14:39:22;10.20;99.90
75321;DHT22;68337;52.196;5.660;2023-04-24T14:41:47;10.40;99.90
75321;DHT22;68337;52.196;5.660;2023-04-24T14:44:13;10.90;99.90
75321;DHT22;68337;52.196;5.660;2023-04-24T14:46:39;11.20;99.90
75321;DHT22;68337;52.196;5.660;2023-04-24T14:49:05;11.40;99.90
75321;DHT22;68337;52.196;5.660;2023-04-24T14:51:30;11.20;99.90
75321;DHT22;68337;52.196;5.660;2023-04-24T14:53:56;11.40;99.90
75321;DHT22;68337;52.196;5.660;2023-04-24T14:56:23;11.10;99.90
75321;DHT22;68337;52.196;5.660;2023-04-24T14:58:48;11.00;99.90
75321;DHT22;68337;52.196;5.660;2023-04-24T15:01:14;11.00;99.90
75321;DHT22;68337;52.196;5.660;2023-04-24T15:03:40;11.00;99.90
75321;DHT22;68337;52.196;5.660;2023-04-24T15:06:06;10.80;99.90
75321;DHT22;68337;52.196;5.660;2023-04-24T15:08:31;10.80;99.90
75321;DHT22;68337;52.196;5.660;2023-04-24T15:10:57;10.70;99.90
75321;DHT22;68337;52.196;5.660;2023-04-24T15:13:23;10.70;99.90
75321;DHT22;68337;52.196;5.660;2023-04-24T15:15:49;10.90;99.90
75321;DHT22;68337;52.196;5.660;2023-04-24T15:18:15;11.10;99.90
75321;DHT22;68337;52.196;5.660;2023-04-24T15:20:40;11.20;99.90
75321;DHT22;68337;52.196;5.660;2023-04-24T15:23:10;11.40;99.90
75321;DHT22;68337;52.196;5.660;2023-04-24T15:25:36;11.30;99.90
75321;DHT22;68337;52.196;5.660;2023-04-24T15:28:02;11.40;99.90
75321;DHT22;68337;52.196;5.660;2023-04-24T15:30:29;11.30;99.90
75321;DHT22;68337;52.196;5.660;2023-04-24T15:32:54;11.30;99.90
75321;DHT22;68337;52.196;5.660;2023-04-24T15:35:20;11.50;99.90
75321;DHT22;68337;52.196;5.660;2023-04-24T15:37:46;11.20;99.90
75321;DHT22;68337;52.196;5.660;2023-04-24T15:40:12;11.20;99.90
75321;DHT22;68337;52.196;5.660;2023-04-24T15:42:41;11.10;99.90
75321;DHT22;68337;52.196;5.660;2023-04-24T15:45:08;11.20;99.90
75321;DHT22;68337;52.196;5.660;2023-04-24T15:47:34;11.10;99.90
75321;DHT22;68337;52.196;5.660;2023-04-24T15:50:01;10.90;99.90
75321;DHT22;68337;52.196;5.660;2023-04-24T15:52:27;10.80;99.90
75321;DHT22;68337;52.196;5.660;2023-04-24T15:54:53;10.90;99.90
75321;DHT22;68337;52.196;5.660;2023-04-24T15:57:18;10.60;99.90
75321;DHT22;68337;52.196;5.660;2023-04-24T15:59:44;10.70;99.90
75321;DHT22;68337;52.196;5.660;2023-04-24T16:02:12;10.70;99.90
75321;DHT22;68337;52.196;5.660;2023-04-24T16:04:45;10.80;99.90